createdAt,value
2023-02-04T00:03:38.006Z,86.80
2023-02-04T00:11:45.994Z,86.60
2023-02-04T00:19:51.488Z,86.10
2023-02-04T00:27:59.654Z,86.30
2023-02-04T00:36:05.287Z,86.50
2023-02-04T00:44:14.142Z,87.00
2023-02-04T00:52:19.676Z,87.60
2023-02-04T01:00:29.027Z,88.40
2023-02-04T01:08:34.671Z,88.40
2023-02-04T01:16:42.983Z,90.30
2023-02-04T01:24:49.193Z,91.00
2023-02-04T01:33:15.750Z,91.00
2023-02-04T01:41:21.806Z,90.80
2023-02-04T01:49:30.215Z,90.50
2023-02-04T01:57:36.967Z,90.30
2023-02-04T02:05:47.869Z,90.00
2023-02-04T02:13:53.387Z,89.40
2023-02-04T02:22:05.526Z,89.70
2023-02-04T02:30:17.906Z,89.90
2023-02-04T02:38:23.605Z,88.60
2023-02-04T02:46:31.912Z,89.10
2023-02-04T02:54:37.470Z,88.50
2023-02-04T03:02:47.015Z,88.40
2023-02-04T03:10:52.899Z,89.00
2023-02-04T03:19:01.421Z,88.20
2023-02-04T03:27:07.238Z,88.10
2023-02-04T03:35:15.822Z,88.00
2023-02-04T03:43:21.334Z,87.60
2023-02-04T03:51:29.263Z,87.60
2023-02-04T03:59:34.609Z,88.00
2023-02-04T04:07:42.926Z,87.90
2023-02-04T04:15:48.291Z,88.30
2023-02-04T04:23:56.277Z,88.00
2023-02-04T04:32:01.714Z,88.20
2023-02-04T04:40:10.600Z,87.70
2023-02-04T04:48:15.984Z,88.20
2023-02-04T04:56:24.067Z,87.80
2023-02-04T05:04:29.605Z,88.00
2023-02-04T05:12:37.857Z,88.20
2023-02-04T05:20:43.211Z,88.00
2023-02-04T05:28:51.267Z,88.30
2023-02-04T05:36:56.810Z,88.00
2023-02-04T05:45:04.914Z,88.20
2023-02-04T05:53:10.360Z,87.90
2023-02-04T06:01:18.303Z,88.20
2023-02-04T06:09:23.707Z,87.80
2023-02-04T06:17:31.850Z,87.80
2023-02-04T06:25:37.444Z,87.40
2023-02-04T06:33:45.525Z,87.40
2023-02-04T06:41:50.895Z,87.00
2023-02-04T06:49:58.916Z,87.20
2023-02-04T06:58:04.385Z,86.70
2023-02-04T07:06:12.391Z,86.20
2023-02-04T07:14:18.870Z,86.30
2023-02-04T07:22:26.953Z,86.10
2023-02-04T07:30:33.086Z,85.00
2023-02-04T07:38:41.378Z,84.40
2023-02-04T07:46:46.878Z,83.60
2023-02-04T07:54:55.230Z,83.30
2023-02-04T08:03:00.789Z,82.90
2023-02-04T08:11:09.146Z,82.10
2023-02-04T08:19:19.226Z,82.80
2023-02-04T08:27:27.312Z,82.80
2023-02-04T08:35:33.021Z,82.00
2023-02-04T08:43:45.794Z,81.80
2023-02-04T08:51:51.239Z,81.50
2023-02-04T08:59:59.319Z,81.10
2023-02-04T09:08:05.001Z,77.50
2023-02-04T09:16:21.394Z,70.60
2023-02-04T09:24:27.072Z,68.30
2023-02-04T09:32:35.338Z,72.60
2023-02-04T09:40:44.885Z,75.60
2023-02-04T09:48:53.610Z,78.40
2023-02-04T09:57:00.225Z,79.80
2023-02-04T10:05:09.736Z,81.00
2023-02-04T10:13:21.301Z,81.20
2023-02-04T10:30:35.889Z,82.00
2023-02-04T10:38:41.611Z,81.20
2023-02-04T10:46:50.234Z,80.40
2023-02-04T10:54:55.843Z,79.80
2023-02-04T11:03:08.336Z,79.90
2023-02-04T11:11:20.098Z,80.70
2023-02-04T11:19:40.051Z,83.40
2023-02-04T11:27:47.430Z,83.20
2023-02-04T11:36:04.932Z,82.80
2023-02-04T11:44:12.571Z,83.60
2023-02-04T11:52:20.516Z,81.60
2023-02-04T12:00:28.081Z,78.00
2023-02-04T12:08:40.473Z,77.00
2023-02-04T12:16:51.610Z,76.10
2023-02-04T12:25:00.242Z,78.00
2023-02-04T12:33:06.358Z,74.80
2023-02-04T12:41:14.411Z,77.70
2023-02-04T12:49:20.066Z,79.20
2023-02-04T12:57:28.107Z,80.00
2023-02-04T13:05:36.113Z,80.00
2023-02-04T13:13:44.426Z,83.30
2023-02-04T13:21:50.063Z,82.80
2023-02-04T13:29:58.053Z,84.30
2023-02-04T13:38:03.774Z,86.00
2023-02-04T13:46:12.190Z,85.50
2023-02-04T13:54:17.854Z,87.30
2023-02-04T14:02:25.802Z,86.90
2023-02-04T14:10:31.780Z,87.00
2023-02-04T14:18:40.232Z,87.20
2023-02-04T14:26:45.615Z,87.10
2023-02-04T14:34:53.784Z,86.60
2023-02-04T14:42:59.249Z,86.50
2023-02-04T14:51:07.590Z,86.40
2023-02-04T14:59:13.121Z,86.00
2023-02-04T15:07:25.703Z,86.00
2023-02-04T15:15:33.616Z,85.90
2023-02-04T15:23:39.127Z,86.20
2023-02-04T15:31:50.381Z,86.10
2023-02-04T15:39:57.058Z,86.60
2023-02-04T15:48:05.224Z,86.60
2023-02-04T15:56:11.186Z,87.40
2023-02-04T16:04:20.897Z,87.20
2023-02-04T16:12:26.407Z,86.80
2023-02-04T16:20:34.504Z,87.10
2023-02-04T16:28:40.321Z,86.90
2023-02-04T16:36:48.630Z,86.90
2023-02-04T16:44:54.070Z,87.40
2023-02-04T16:53:02.152Z,88.50
2023-02-04T17:01:08.058Z,88.60
2023-02-04T17:09:16.160Z,89.00
2023-02-04T17:17:21.473Z,89.60
2023-02-04T17:25:29.743Z,89.40
2023-02-04T17:33:38.016Z,89.90
2023-02-04T17:41:47.059Z,89.80
2023-02-04T17:49:52.410Z,89.40
2023-02-04T17:58:03.057Z,90.30
2023-02-04T18:06:23.622Z,89.90
2023-02-04T18:14:31.737Z,89.90
2023-02-04T18:22:37.121Z,90.00
2023-02-04T18:30:45.590Z,89.00
2023-02-04T18:38:51.056Z,89.50
2023-02-04T18:46:59.342Z,89.00
2023-02-04T18:55:04.756Z,89.30
2023-02-04T19:03:26.542Z,89.80
2023-02-04T19:11:38.151Z,90.20
2023-02-04T19:19:52.992Z,90.20
2023-02-04T19:28:00.773Z,90.60
2023-02-04T19:36:34.201Z,90.80
2023-02-04T19:44:47.542Z,91.00
2023-02-04T19:53:03.176Z,91.30
2023-02-04T20:01:12.404Z,91.20
2023-02-04T20:09:23.557Z,91.20
2023-02-04T20:17:42.935Z,91.30
2023-02-04T20:25:51.945Z,91.30
2023-02-04T20:33:59.581Z,90.80
2023-02-04T20:42:28.080Z,90.50
2023-02-04T20:51:08.677Z,90.40
2023-02-04T20:59:51.247Z,90.20
2023-02-04T21:07:59.701Z,90.50
2023-02-04T21:16:08.806Z,90.20
2023-02-04T21:24:14.216Z,88.90
2023-02-04T21:32:25.893Z,88.20
2023-02-04T21:40:31.626Z,89.30
2023-02-04T21:48:39.951Z,89.60
2023-02-04T21:56:46.248Z,88.80
2023-02-04T22:04:54.299Z,88.10
2023-02-04T22:13:00.589Z,87.80
2023-02-04T22:21:09.067Z,88.40
2023-02-04T22:29:15.174Z,88.60
2023-02-04T22:37:23.324Z,87.40
2023-02-04T22:45:28.670Z,87.80
2023-02-04T22:53:36.731Z,87.60
2023-02-04T23:01:42.335Z,89.20
2023-02-04T23:09:50.336Z,88.70
2023-02-04T23:17:57.613Z,88.50
2023-02-04T23:26:05.702Z,87.90
2023-02-04T23:34:11.101Z,87.00
2023-02-04T23:42:19.293Z,86.20
2023-02-04T23:50:24.910Z,86.40
2023-02-04T23:58:32.902Z,86.10
